Albrightsville, PA (18210)

11:37 AM EDT on September 29, 2016 (GMT -0400)
Towamensing Trails | | Change Station

Elev 1713 ft 41.00 °N, 75.58 °W | Updated 0 second ago

Overcast
Overcast
52.5 °F
Feels Like 52.5 °F
N
2.0
Wind Variable Wind from ENE
Gusts 4.9 mph

Today
High -- | Low -- °F
--% Chance of Precip.
Yesterday
High -- | Low -- °F
Precip. -- in
Pressure 30.35 in
Visibility 10.0 miles
Clouds Overcast 200 ft
Dew Point 41 °F
Humidity 64%
Rainfall 0.30 in
Snow Depth Not available.
6:57 AM 6:46 PM
Waning Crescent, 2% visible
METAR KMPO 291453Z AUTO 09014G22KT 10SM OVC002 10/09 A3033 RMK AO2 SLP276 60003 T01000094 53009 $
Pressure 30.35 in
Visibility 10.0 miles
Clouds Overcast 200 ft
Dew Point 41 °F
Humidity 64%
Rainfall 0.30 in
Snow Depth Not available.
6:57 AM 6:46 PM
Waning Crescent, 2% visible
METAR KMPO 291453Z AUTO 09014G22KT 10SM OVC002 10/09 A3033 RMK AO2 SLP276 60003 T01000094 53009 $

10-Day Weather Forecast

Almanac

Astronomy

Sep. 29, 2016 Rise Set
Actual Time
Civil Twilight
Nautical Twilight
Astronomical Twilight
Moon
Length of Visible Light
Length of Day
Tomorrow will be .
, % of the Moon is Illuminated

Today's Extremes

State Highs State Lows

Community

WunderPhotos

Upload Photos

1,942,499 photos uploaded!

WunderBlog® & News

Nearby

Air Quality

  Air Quality AQ Index Pollutant
Not available.

Snow Depth

Station Depth Elevation

Earthquake Activity

City Distance Mag. Time & Date
Minimum magnitude displayed is 2.5.

Coastal Water Temperatures

Place Temperature

Stations

Nearby Weather Stations

Station Location Temp. Windchill Dew Point Humidity Wind Precip. Elev Updated Type
                   

Watches & Warnings

There are currently no watches in effect.